sensor_id;sensor_type;location;lat;lon;timestamp;P1;durP1;ratioP1;P2;durP2;ratioP2
67041;SDS011;53949;47.790;18.750;2023-04-01T00:01:46;2.28;;;1.37;;
67041;SDS011;53949;47.790;18.750;2023-04-01T00:04:50;2.08;;;1.30;;
67041;SDS011;53949;47.790;18.750;2023-04-01T00:07:53;1.77;;;1.40;;
67041;SDS011;53949;47.790;18.750;2023-04-01T00:10:57;3.30;;;1.35;;
67041;SDS011;53949;47.790;18.750;2023-04-01T00:14:00;3.15;;;1.40;;
67041;SDS011;53949;47.790;18.750;2023-04-01T00:17:04;2.20;;;1.30;;
67041;SDS011;53949;47.790;18.750;2023-04-01T00:20:07;1.92;;;1.70;;
67041;SDS011;53949;47.790;18.750;2023-04-01T00:23:12;5.28;;;1.23;;
67041;SDS011;53949;47.790;18.750;2023-04-01T00:26:15;3.55;;;2.17;;
67041;SDS011;53949;47.790;18.750;2023-04-01T00:29:21;3.50;;;1.33;;
67041;SDS011;53949;47.790;18.750;2023-04-01T00:32:26;2.75;;;1.20;;
67041;SDS011;53949;47.790;18.750;2023-04-01T00:35:30;4.82;;;1.37;;
67041;SDS011;53949;47.790;18.750;2023-04-01T00:38:33;1.92;;;1.27;;
67041;SDS011;53949;47.790;18.750;2023-04-01T00:41:37;1.90;;;1.30;;
67041;SDS011;53949;47.790;18.750;2023-04-01T00:44:40;2.05;;;1.00;;
67041;SDS011;53949;47.790;18.750;2023-04-01T00:47:45;6.37;;;1.58;;
67041;SDS011;53949;47.790;18.750;2023-04-01T00:54:25;1.02;;;1.00;;
67041;SDS011;53949;47.790;18.750;2023-04-01T00:57:31;1.87;;;1.30;;
67041;SDS011;53949;47.790;18.750;2023-04-01T01:00:37;1.45;;;1.25;;
67041;SDS011;53949;47.790;18.750;2023-04-01T01:03:41;1.08;;;0.85;;
67041;SDS011;53949;47.790;18.750;2023-04-01T01:06:56;2.62;;;1.17;;
67041;SDS011;53949;47.790;18.750;2023-04-01T01:10:17;1.45;;;1.05;;
67041;SDS011;53949;47.790;18.750;2023-04-01T01:13:28;0.90;;;0.90;;
67041;SDS011;53949;47.790;18.750;2023-04-01T01:16:40;0.90;;;0.82;;
67041;SDS011;53949;47.790;18.750;2023-04-01T01:23:06;0.80;;;0.80;;
67041;SDS011;53949;47.790;18.750;2023-04-01T01:33:48;1.20;;;1.00;;
67041;SDS011;53949;47.790;18.750;2023-04-01T01:37:10;1.40;;;0.95;;
67041;SDS011;53949;47.790;18.750;2023-04-01T01:40:16;0.90;;;0.90;;
67041;SDS011;53949;47.790;18.750;2023-04-01T01:43:27;2.35;;;1.20;;
67041;SDS011;53949;47.790;18.750;2023-04-01T01:46:34;0.93;;;0.90;;
67041;SDS011;53949;47.790;18.750;2023-04-01T01:49:38;1.67;;;1.05;;
67041;SDS011;53949;47.790;18.750;2023-04-01T01:52:43;0.95;;;0.85;;
67041;SDS011;53949;47.790;18.750;2023-04-01T01:55:46;2.03;;;0.93;;
67041;SDS011;53949;47.790;18.750;2023-04-01T01:58:51;2.12;;;1.00;;
67041;SDS011;53949;47.790;18.750;2023-04-01T02:01:57;2.00;;;1.05;;
67041;SDS011;53949;47.790;18.750;2023-04-01T02:05:02;3.20;;;0.80;;
67041;SDS011;53949;47.790;18.750;2023-04-01T02:11:12;1.30;;;1.00;;
67041;SDS011;53949;47.790;18.750;2023-04-01T02:14:17;1.95;;;1.00;;
67041;SDS011;53949;47.790;18.750;2023-04-01T02:17:27;0.77;;;0.77;;
67041;SDS011;53949;47.790;18.750;2023-04-01T02:23:35;1.02;;;0.93;;
67041;SDS011;53949;47.790;18.750;2023-04-01T02:26:39;1.12;;;1.00;;
67041;SDS011;53949;47.790;18.750;2023-04-01T02:29:42;3.90;;;1.10;;
67041;SDS011;53949;47.790;18.750;2023-04-01T02:32:47;0.70;;;0.70;;
67041;SDS011;53949;47.790;18.750;2023-04-01T02:35:51;1.37;;;0.73;;
67041;SDS011;53949;47.790;18.750;2023-04-01T02:38:54;1.05;;;0.90;;
67041;SDS011;53949;47.790;18.750;2023-04-01T02:41:59;0.88;;;0.88;;
67041;SDS011;53949;47.790;18.750;2023-04-01T02:45:04;0.82;;;0.82;;
67041;SDS011;53949;47.790;18.750;2023-04-01T02:48:08;3.55;;;1.33;;
67041;SDS011;53949;47.790;18.750;2023-04-01T02:51:11;1.50;;;1.23;;
67041;SDS011;53949;47.790;18.750;2023-04-01T02:54:14;2.28;;;1.10;;
67041;SDS011;53949;47.790;18.750;2023-04-01T02:57:18;2.10;;;1.20;;
67041;SDS011;53949;47.790;18.750;2023-04-01T03:00:21;2.53;;;1.48;;
67041;SDS011;53949;47.790;18.750;2023-04-01T03:03:25;1.08;;;1.00;;
67041;SDS011;53949;47.790;18.750;2023-04-01T03:06:28;2.12;;;1.10;;
67041;SDS011;53949;47.790;18.750;2023-04-01T03:09:31;1.02;;;0.90;;
67041;SDS011;53949;47.790;18.750;2023-04-01T03:12:34;1.48;;;1.08;;
67041;SDS011;53949;47.790;18.750;2023-04-01T03:15:38;1.58;;;0.88;;
67041;SDS011;53949;47.790;18.750;2023-04-01T03:18:41;0.95;;;0.93;;
67041;SDS011;53949;47.790;18.750;2023-04-01T03:21:45;1.48;;;0.90;;
67041;SDS011;53949;47.790;18.750;2023-04-01T03:24:48;2.03;;;1.10;;
67041;SDS011;53949;47.790;18.750;2023-04-01T03:27:51;1.12;;;1.02;;
67041;SDS011;53949;47.790;18.750;2023-04-01T03:30:54;0.90;;;0.90;;
67041;SDS011;53949;47.790;18.750;2023-04-01T03:33:57;1.62;;;1.10;;
67041;SDS011;53949;47.790;18.750;2023-04-01T03:37:01;2.45;;;0.80;;
67041;SDS011;53949;47.790;18.750;2023-04-01T03:40:05;0.93;;;0.93;;
67041;SDS011;53949;47.790;18.750;2023-04-01T03:43:09;2.25;;;1.20;;
67041;SDS011;53949;47.790;18.750;2023-04-01T03:46:16;2.10;;;1.30;;
67041;SDS011;53949;47.790;18.750;2023-04-01T03:49:20;3.28;;;1.30;;
67041;SDS011;53949;47.790;18.750;2023-04-01T03:52:24;1.35;;;1.20;;
67041;SDS011;53949;47.790;18.750;2023-04-01T03:55:27;1.37;;;1.12;;
67041;SDS011;53949;47.790;18.750;2023-04-01T03:58:30;1.65;;;1.02;;
67041;SDS011;53949;47.790;18.750;2023-04-01T04:01:35;1.27;;;1.00;;
67041;SDS011;53949;47.790;18.750;2023-04-01T04:04:38;3.78;;;1.33;;
67041;SDS011;53949;47.790;18.750;2023-04-01T04:07:42;1.15;;;1.10;;
67041;SDS011;53949;47.790;18.750;2023-04-01T04:10:46;1.08;;;0.95;;
67041;SDS011;53949;47.790;18.750;2023-04-01T04:13:50;1.23;;;0.98;;
67041;SDS011;53949;47.790;18.750;2023-04-01T04:16:55;1.12;;;1.02;;
67041;SDS011;53949;47.790;18.750;2023-04-01T04:19:58;1.35;;;1.20;;
67041;SDS011;53949;47.790;18.750;2023-04-01T04:23:02;1.73;;;1.00;;
67041;SDS011;53949;47.790;18.750;2023-04-01T04:26:07;3.28;;;1.10;;
67041;SDS011;53949;47.790;18.750;2023-04-01T04:29:12;1.73;;;1.08;;
67041;SDS011;53949;47.790;18.750;2023-04-01T04:32:15;2.35;;;1.23;;
67041;SDS011;53949;47.790;18.750;2023-04-01T04:35:18;1.15;;;1.05;;
67041;SDS011;53949;47.790;18.750;2023-04-01T04:38:21;3.22;;;1.50;;
67041;SDS011;53949;47.790;18.750;2023-04-01T04:41:25;1.17;;;1.08;;
67041;SDS011;53949;47.790;18.750;2023-04-01T04:44:29;1.58;;;1.00;;
67041;SDS011;53949;47.790;18.750;2023-04-01T04:47:32;1.70;;;1.17;;
67041;SDS011;53949;47.790;18.750;2023-04-01T04:50:35;0.95;;;0.90;;
67041;SDS011;53949;47.790;18.750;2023-04-01T04:53:39;2.37;;;1.30;;
67041;SDS011;53949;47.790;18.750;2023-04-01T04:56:42;1.40;;;1.30;;
67041;SDS011;53949;47.790;18.750;2023-04-01T04:59:46;1.33;;;1.20;;
67041;SDS011;53949;47.790;18.750;2023-04-01T05:02:50;4.50;;;1.60;;
67041;SDS011;53949;47.790;18.750;2023-04-01T05:05:54;2.62;;;1.30;;
67041;SDS011;53949;47.790;18.750;2023-04-01T05:08:57;2.22;;;1.60;;
67041;SDS011;53949;47.790;18.750;2023-04-01T05:12:01;3.47;;;1.58;;
67041;SDS011;53949;47.790;18.750;2023-04-01T05:15:06;2.20;;;1.40;;
67041;SDS011;53949;47.790;18.750;2023-04-01T05:18:10;3.85;;;1.58;;
67041;SDS011;53949;47.790;18.750;2023-04-01T05:21:13;1.65;;;1.55;;
67041;SDS011;53949;47.790;18.750;2023-04-01T05:24:17;2.70;;;1.27;;
67041;SDS011;53949;47.790;18.750;2023-04-01T05:27:20;4.05;;;1.62;;
67041;SDS011;53949;47.790;18.750;2023-04-01T05:30:24;4.57;;;1.58;;
67041;SDS011;53949;47.790;18.750;2023-04-01T05:33:28;2.20;;;1.70;;
67041;SDS011;53949;47.790;18.750;2023-04-01T05:36:31;4.60;;;1.85;;
67041;SDS011;53949;47.790;18.750;2023-04-01T05:39:38;2.22;;;1.75;;
67041;SDS011;53949;47.790;18.750;2023-04-01T05:42:42;2.92;;;1.60;;
67041;SDS011;53949;47.790;18.750;2023-04-01T05:45:46;1.42;;;1.33;;
67041;SDS011;53949;47.790;18.750;2023-04-01T05:51:55;2.95;;;1.65;;
67041;SDS011;53949;47.790;18.750;2023-04-01T05:54:58;2.20;;;1.40;;
67041;SDS011;53949;47.790;18.750;2023-04-01T05:58:03;1.75;;;1.60;;
67041;SDS011;53949;47.790;18.750;2023-04-01T06:01:08;2.80;;;1.50;;
67041;SDS011;53949;47.790;18.750;2023-04-01T06:04:18;2.45;;;1.90;;
67041;SDS011;53949;47.790;18.750;2023-04-01T06:07:21;1.65;;;1.30;;
67041;SDS011;53949;47.790;18.750;2023-04-01T06:20:52;2.62;;;1.98;;
67041;SDS011;53949;47.790;18.750;2023-04-01T06:40:22;3.08;;;1.80;;
67041;SDS011;53949;47.790;18.750;2023-04-01T06:53:29;1.95;;;1.60;;
67041;SDS011;53949;47.790;18.750;2023-04-01T06:56:46;2.12;;;1.70;;
67041;SDS011;53949;47.790;18.750;2023-04-01T06:59:54;3.62;;;1.98;;
67041;SDS011;53949;47.790;18.750;2023-04-01T07:03:05;1.87;;;1.50;;
67041;SDS011;53949;47.790;18.750;2023-04-01T07:06:13;3.00;;;1.92;;
67041;SDS011;53949;47.790;18.750;2023-04-01T07:09:28;2.08;;;1.42;;
67041;SDS011;53949;47.790;18.750;2023-04-01T07:12:48;1.73;;;1.40;;
67041;SDS011;53949;47.790;18.750;2023-04-01T07:19:18;2.50;;;1.30;;
67041;SDS011;53949;47.790;18.750;2023-04-01T07:22:34;3.33;;;1.70;;
67041;SDS011;53949;47.790;18.750;2023-04-01T07:25:41;7.57;;;1.95;;
67041;SDS011;53949;47.790;18.750;2023-04-01T07:28:50;1.98;;;1.67;;
67041;SDS011;53949;47.790;18.750;2023-04-01T07:35:17;4.03;;;1.42;;
67041;SDS011;53949;47.790;18.750;2023-04-01T07:38:35;4.32;;;1.50;;
67041;SDS011;53949;47.790;18.750;2023-04-01T07:42:07;2.87;;;1.77;;
67041;SDS011;53949;47.790;18.750;2023-04-01T07:45:40;2.20;;;1.50;;
67041;SDS011;53949;47.790;18.750;2023-04-01T07:48:58;3.87;;;1.45;;
67041;SDS011;53949;47.790;18.750;2023-04-01T07:55:21;1.35;;;1.17;;
67041;SDS011;53949;47.790;18.750;2023-04-01T08:08:48;2.83;;;1.12;;
67041;SDS011;53949;47.790;18.750;2023-04-01T08:12:18;2.70;;;0.98;;
67041;SDS011;53949;47.790;18.750;2023-04-01T08:23:10;2.65;;;0.90;;
67041;SDS011;53949;47.790;18.750;2023-04-01T08:29:41;1.35;;;0.85;;
67041;SDS011;53949;47.790;18.750;2023-04-01T08:32:56;4.40;;;1.77;;
67041;SDS011;53949;47.790;18.750;2023-04-01T08:39:24;0.80;;;0.73;;
67041;SDS011;53949;47.790;18.750;2023-04-01T09:07:27;3.12;;;0.80;;
67041;SDS011;53949;47.790;18.750;2023-04-01T09:27:27;1.60;;;1.02;;
67041;SDS011;53949;47.790;18.750;2023-04-01T09:33:46;1.65;;;1.27;;
67041;SDS011;53949;47.790;18.750;2023-04-01T09:37:20;1.45;;;1.02;;
67041;SDS011;53949;47.790;18.750;2023-04-01T09:40:34;2.15;;;1.00;;
67041;SDS011;53949;47.790;18.750;2023-04-01T09:44:01;5.57;;;1.13;;
67041;SDS011;53949;47.790;18.750;2023-04-01T09:51:10;3.62;;;1.23;;
67041;SDS011;53949;47.790;18.750;2023-04-01T09:54:23;3.15;;;1.10;;
67041;SDS011;53949;47.790;18.750;2023-04-01T10:00:55;2.62;;;1.77;;
67041;SDS011;53949;47.790;18.750;2023-04-01T10:14:34;2.03;;;1.10;;
67041;SDS011;53949;47.790;18.750;2023-04-01T10:25:15;1.90;;;1.00;;
67041;SDS011;53949;47.790;18.750;2023-04-01T10:31:55;4.22;;;1.08;;
67041;SDS011;53949;47.790;18.750;2023-04-01T10:39:00;3.12;;;0.82;;
67041;SDS011;53949;47.790;18.750;2023-04-01T10:49:05;3.53;;;0.90;;
67041;SDS011;53949;47.790;18.750;2023-04-01T11:06:37;2.28;;;1.20;;
67041;SDS011;53949;47.790;18.750;2023-04-01T11:13:15;0.80;;;0.80;;
67041;SDS011;53949;47.790;18.750;2023-04-01T11:30:29;1.52;;;0.85;;
67041;SDS011;53949;47.790;18.750;2023-04-01T11:33:54;1.52;;;0.68;;
67041;SDS011;53949;47.790;18.750;2023-04-01T11:40:35;2.97;;;1.10;;
67041;SDS011;53949;47.790;18.750;2023-04-01T11:44:36;4.43;;;1.17;;
67041;SDS011;53949;47.790;18.750;2023-04-01T11:47:51;1.62;;;0.80;;
67041;SDS011;53949;47.790;18.750;2023-04-01T11:58:12;1.85;;;1.08;;
67041;SDS011;53949;47.790;18.750;2023-04-01T12:04:36;1.02;;;0.90;;
67041;SDS011;53949;47.790;18.750;2023-04-01T12:11:22;0.73;;;0.50;;
67041;SDS011;53949;47.790;18.750;2023-04-01T12:14:39;0.57;;;0.52;;
67041;SDS011;53949;47.790;18.750;2023-04-01T12:17:50;2.10;;;0.80;;
67041;SDS011;53949;47.790;18.750;2023-04-01T12:21:00;1.60;;;0.90;;
67041;SDS011;53949;47.790;18.750;2023-04-01T12:24:12;1.77;;;0.85;;
67041;SDS011;53949;47.790;18.750;2023-04-01T12:27:38;6.97;;;1.65;;
67041;SDS011;53949;47.790;18.750;2023-04-01T12:51:29;2.65;;;0.68;;
67041;SDS011;53949;47.790;18.750;2023-04-01T13:25:06;1.75;;;0.90;;
67041;SDS011;53949;47.790;18.750;2023-04-01T13:28:25;2.60;;;0.68;;
67041;SDS011;53949;47.790;18.750;2023-04-01T13:41:33;5.37;;;0.98;;
67041;SDS011;53949;47.790;18.750;2023-04-01T13:44:41;2.08;;;0.80;;
67041;SDS011;53949;47.790;18.750;2023-04-01T13:58:00;3.05;;;0.70;;
67041;SDS011;53949;47.790;18.750;2023-04-01T14:11:17;1.85;;;1.00;;
67041;SDS011;53949;47.790;18.750;2023-04-01T14:18:13;3.25;;;0.75;;
67041;SDS011;53949;47.790;18.750;2023-04-01T14:21:40;3.65;;;1.50;;
67041;SDS011;53949;47.790;18.750;2023-04-01T14:28:47;1.95;;;1.08;;
67041;SDS011;53949;47.790;18.750;2023-04-01T14:32:20;5.95;;;1.85;;
67041;SDS011;53949;47.790;18.750;2023-04-01T14:35:38;0.98;;;0.98;;
67041;SDS011;53949;47.790;18.750;2023-04-01T14:45:45;3.60;;;1.35;;
67041;SDS011;53949;47.790;18.750;2023-04-01T14:55:28;0.30;;;0.30;;
67041;SDS011;53949;47.790;18.750;2023-04-01T14:58:51;0.83;;;0.30;;
67041;SDS011;53949;47.790;18.750;2023-04-01T15:02:02;0.43;;;0.28;;
67041;SDS011;53949;47.790;18.750;2023-04-01T15:08:31;3.17;;;0.30;;
67041;SDS011;53949;47.790;18.750;2023-04-01T15:14:56;0.40;;;0.37;;
67041;SDS011;53949;47.790;18.750;2023-04-01T15:18:21;0.98;;;0.35;;
67041;SDS011;53949;47.790;18.750;2023-04-01T15:24:47;0.47;;;0.47;;
67041;SDS011;53949;47.790;18.750;2023-04-01T15:31:16;1.05;;;0.90;;
67041;SDS011;53949;47.790;18.750;2023-04-01T15:38:05;1.15;;;0.90;;
67041;SDS011;53949;47.790;18.750;2023-04-01T15:41:24;2.22;;;1.10;;
67041;SDS011;53949;47.790;18.750;2023-04-01T16:05:00;1.40;;;0.70;;
67041;SDS011;53949;47.790;18.750;2023-04-01T16:28:53;1.02;;;0.80;;
67041;SDS011;53949;47.790;18.750;2023-04-01T16:48:54;2.00;;;0.93;;
67041;SDS011;53949;47.790;18.750;2023-04-01T16:55:16;1.83;;;0.90;;
67041;SDS011;53949;47.790;18.750;2023-04-01T16:58:23;2.37;;;1.10;;
67041;SDS011;53949;47.790;18.750;2023-04-01T17:01:30;1.80;;;0.98;;
67041;SDS011;53949;47.790;18.750;2023-04-01T17:04:58;1.90;;;1.02;;
67041;SDS011;53949;47.790;18.750;2023-04-01T17:26:17;1.52;;;1.20;;
67041;SDS011;53949;47.790;18.750;2023-04-01T17:36:47;3.65;;;1.67;;
67041;SDS011;53949;47.790;18.750;2023-04-01T17:40:15;2.28;;;1.80;;
67041;SDS011;53949;47.790;18.750;2023-04-01T17:53:29;3.20;;;1.60;;
67041;SDS011;53949;47.790;18.750;2023-04-01T18:20:24;1.83;;;1.20;;
67041;SDS011;53949;47.790;18.750;2023-04-01T18:23:44;2.30;;;2.10;;
67041;SDS011;53949;47.790;18.750;2023-04-01T18:27:15;4.32;;;2.30;;
67041;SDS011;53949;47.790;18.750;2023-04-01T18:30:28;12.68;;;6.47;;
67041;SDS011;53949;47.790;18.750;2023-04-01T18:36:55;19.05;;;9.55;;
67041;SDS011;53949;47.790;18.750;2023-04-01T18:43:42;14.50;;;7.32;;
67041;SDS011;53949;47.790;18.750;2023-04-01T18:46:54;12.52;;;6.12;;
67041;SDS011;53949;47.790;18.750;2023-04-01T18:53:48;33.92;;;15.40;;
67041;SDS011;53949;47.790;18.750;2023-04-01T18:57:02;21.02;;;9.80;;
67041;SDS011;53949;47.790;18.750;2023-04-01T19:00:32;14.90;;;6.55;;
67041;SDS011;53949;47.790;18.750;2023-04-01T19:06:58;25.80;;;13.27;;
67041;SDS011;53949;47.790;18.750;2023-04-01T19:20:26;6.18;;;3.50;;
67041;SDS011;53949;47.790;18.750;2023-04-01T19:33:44;5.90;;;2.55;;
67041;SDS011;53949;47.790;18.750;2023-04-01T19:43:44;2.17;;;1.90;;
67041;SDS011;53949;47.790;18.750;2023-04-01T19:50:48;2.60;;;1.50;;
67041;SDS011;53949;47.790;18.750;2023-04-01T19:57:56;2.67;;;1.50;;
67041;SDS011;53949;47.790;18.750;2023-04-01T20:01:14;3.55;;;1.50;;
67041;SDS011;53949;47.790;18.750;2023-04-01T20:04:51;2.15;;;1.95;;
67041;SDS011;53949;47.790;18.750;2023-04-01T20:08:06;3.37;;;1.80;;
67041;SDS011;53949;47.790;18.750;2023-04-01T20:11:29;2.05;;;1.58;;
67041;SDS011;53949;47.790;18.750;2023-04-01T20:14:47;1.83;;;1.50;;
67041;SDS011;53949;47.790;18.750;2023-04-01T20:17:53;2.78;;;1.35;;
67041;SDS011;53949;47.790;18.750;2023-04-01T20:27:26;2.53;;;1.50;;
67041;SDS011;53949;47.790;18.750;2023-04-01T20:30:38;4.80;;;1.60;;
67041;SDS011;53949;47.790;18.750;2023-04-01T20:37:35;4.70;;;1.87;;
67041;SDS011;53949;47.790;18.750;2023-04-01T20:41:06;7.15;;;3.00;;
67041;SDS011;53949;47.790;18.750;2023-04-01T20:44:12;14.43;;;6.68;;
67041;SDS011;53949;47.790;18.750;2023-04-01T20:50:56;6.30;;;3.90;;
67041;SDS011;53949;47.790;18.750;2023-04-01T21:08:29;4.82;;;3.22;;
67041;SDS011;53949;47.790;18.750;2023-04-01T21:11:40;5.82;;;3.85;;
67041;SDS011;53949;47.790;18.750;2023-04-01T21:21:46;6.85;;;3.30;;
67041;SDS011;53949;47.790;18.750;2023-04-01T21:38:32;4.15;;;2.50;;
67041;SDS011;53949;47.790;18.750;2023-04-01T21:41:44;2.97;;;2.70;;
67041;SDS011;53949;47.790;18.750;2023-04-01T22:06:31;4.93;;;2.45;;
67041;SDS011;53949;47.790;18.750;2023-04-01T22:10:03;2.97;;;2.50;;
67041;SDS011;53949;47.790;18.750;2023-04-01T22:13:17;3.85;;;2.15;;
67041;SDS011;53949;47.790;18.750;2023-04-01T22:16:31;3.58;;;2.30;;
67041;SDS011;53949;47.790;18.750;2023-04-01T22:23:22;5.10;;;2.28;;
67041;SDS011;53949;47.790;18.750;2023-04-01T22:26:44;3.05;;;2.10;;
67041;SDS011;53949;47.790;18.750;2023-04-01T22:43:04;2.10;;;1.90;;
67041;SDS011;53949;47.790;18.750;2023-04-01T22:46:23;2.87;;;1.83;;
67041;SDS011;53949;47.790;18.750;2023-04-01T22:49:31;3.62;;;1.92;;
67041;SDS011;53949;47.790;18.750;2023-04-01T22:52:40;1.45;;;1.35;;
67041;SDS011;53949;47.790;18.750;2023-04-01T22:55:47;2.40;;;1.70;;
67041;SDS011;53949;47.790;18.750;2023-04-01T22:58:56;2.70;;;1.55;;
67041;SDS011;53949;47.790;18.750;2023-04-01T23:02:07;1.95;;;1.75;;
67041;SDS011;53949;47.790;18.750;2023-04-01T23:05:17;2.15;;;1.35;;
67041;SDS011;53949;47.790;18.750;2023-04-01T23:11:50;1.55;;;1.35;;
67041;SDS011;53949;47.790;18.750;2023-04-01T23:14:56;1.20;;;1.10;;
67041;SDS011;53949;47.790;18.750;2023-04-01T23:21:50;1.30;;;1.20;;
67041;SDS011;53949;47.790;18.750;2023-04-01T23:25:23;2.05;;;1.33;;
67041;SDS011;53949;47.790;18.750;2023-04-01T23:32:02;1.52;;;1.40;;
67041;SDS011;53949;47.790;18.750;2023-04-01T23:35:11;1.65;;;1.55;;
67041;SDS011;53949;47.790;18.750;2023-04-01T23:38:19;2.60;;;1.27;;
67041;SDS011;53949;47.790;18.750;2023-04-01T23:41:25;1.45;;;1.20;;
67041;SDS011;53949;47.790;18.750;2023-04-01T23:44:31;1.62;;;1.10;;
67041;SDS011;53949;47.790;18.750;2023-04-01T23:47:35;4.12;;;1.20;;
67041;SDS011;53949;47.790;18.750;2023-04-01T23:50:41;1.98;;;1.30;;
67041;SDS011;53949;47.790;18.750;2023-04-01T23:53:46;1.30;;;0.73;;
67041;SDS011;53949;47.790;18.750;2023-04-01T23:56:54;1.48;;;1.17;;
